Time;durP1;ratioP1;P1;durP2;ratioP2;P2;SDS_P1;SDS_P2;PMS_P1;PMS_P2;Temp;Humidity;BMP_temperature;BMP_pressure;BME280_temperature;BME280_humidity;BME280_pressure;Samples;Min_cycle;Max_cycle;Signal;HPM_P1;HPM_P2
2021/10/19 09:19:47;;;;;;;1.53;0.98;;;;;;;8.54;47.35;100743.34;372919;142;879986;-59
2021/10/19 09:20:51;;;;;;;1.89;0.96;;;;;;;8.51;47.50;100749.34;363194;146;857538;-60
2021/10/19 09:21:55;;;;;;;1.68;1.12;;;;;;;8.69;47.73;100747.84;365742;145;856384;-59
2021/10/19 09:23:00;;;;;;;1.45;1.04;;;;;;;8.88;47.56;100739.47;362617;147;856470;-61
2021/10/19 09:24:25;;;;;;;2.57;1.24;;;;;;;8.98;46.92;100743.02;363944;147;857826;-60
2021/10/19 09:25:35;;;;;;;1.92;1.36;;;;;;;8.98;46.92;100743.02;351971;150;860174;-59
2021/10/19 09:26:38;;;;;;;2.49;1.28;;;;;;;9.27;47.17;100742.48;365269;146;856194;-59
2021/10/19 09:27:42;;;;;;;1.89;1.17;;;;;;;9.48;45.51;100736.64;363951;146;856155;-59
2021/10/19 09:28:43;;;;;;;3.47;1.22;;;;;;;9.67;45.72;100744.59;364674;146;856711;-60
2021/10/19 09:29:49;;;;;;;2.53;1.21;;;;;;;9.89;45.58;100745.61;365386;146;856867;-60
2021/10/19 09:30:51;;;;;;;2.27;0.92;;;;;;;10.19;45.00;100738.06;365755;147;863957;-60
2021/10/19 09:31:54;;;;;;;3.09;1.27;;;;;;;10.50;44.71;100746.92;358439;149;856636;-60
2021/10/19 09:32:56;;;;;;;4.31;1.08;;;;;;;10.78;43.65;100728.91;358082;148;856447;-62
2021/10/19 09:33:58;;;;;;;1.94;1.01;;;;;;;10.60;42.79;100740.08;363398;148;856624;-61
2021/10/19 09:35:00;;;;;;;2.67;1.09;;;;;;;10.44;43.00;100739.13;364436;145;864244;-60
2021/10/19 09:36:02;;;;;;;2.32;0.91;;;;;;;10.72;42.67;100726.30;359343;148;856671;-60
2021/10/19 09:37:05;;;;;;;2.13;1.17;;;;;;;10.90;42.22;100727.22;359255;148;863918;-60
2021/10/19 09:38:12;;;;;;;4.97;1.50;;;;;;;11.09;41.90;100731.59;357857;148;856187;-60
2021/10/19 09:39:12;;;;;;;3.23;1.47;;;;;;;10.74;41.11;100747.89;360631;147;856331;-61
2021/10/19 09:40:14;;;;;;;2.79;1.46;;;;;;;10.50;42.30;100741.74;361288;148;863761;-60
2021/10/19 09:41:15;;;;;;;2.34;1.43;;;;;;;10.55;42.16;100744.34;359422;149;856146;-60
2021/10/19 09:42:26;;;;;;;2.74;1.48;;;;;;;9.77;42.43;100746.40;358551;148;863740;-61
2021/10/19 09:43:30;;;;;;;2.83;1.50;;;;;;;10.16;42.88;100754.45;355927;148;863601;-60
2021/10/19 09:44:32;;;;;;;2.85;1.45;;;;;;;10.52;42.30;100747.80;357022;147;864084;-61
2021/10/19 09:45:34;;;;;;;4.00;1.43;;;;;;;10.35;42.33;100747.66;360259;148;863441;-61
2021/10/19 09:46:36;;;;;;;2.66;1.41;;;;;;;10.58;41.06;100744.35;357451;147;863913;-61
2021/10/19 09:47:39;;;;;;;5.15;1.52;;;;;;;10.69;40.57;100752.19;357030;149;856691;-60
2021/10/19 09:48:40;;;;;;;2.54;1.23;;;;;;;10.69;40.57;100752.19;358676;147;856197;-60
2021/10/19 09:49:42;;;;;;;3.41;1.32;;;;;;;10.77;40.99;100737.55;357891;147;856329;-61
2021/10/19 09:50:45;;;;;;;3.02;1.28;;;;;;;10.83;40.17;100736.72;358768;148;863691;-61
2021/10/19 09:51:47;;;;;;;2.02;1.21;;;;;;;11.09;40.68;100743.70;361978;149;864663;-61
2021/10/19 09:52:48;;;;;;;3.44;1.60;;;;;;;11.15;39.57;100738.53;360374;147;863915;-60
2021/10/19 09:53:50;;;;;;;3.64;1.28;;;;;;;11.15;39.88;100737.69;351064;150;863575;-61
2021/10/19 09:54:53;;;;;;;3.40;1.59;;;;;;;11.12;39.26;100735.94;354026;149;864075;-60
2021/10/19 09:55:55;;;;;;;2.79;1.38;;;;;;;11.16;39.70;100744.59;359318;147;856646;-60
2021/10/19 09:56:58;;;;;;;18.58;2.12;;;;;;;11.23;40.00;100736.82;361422;147;856257;-60
2021/10/19 09:57:59;;;;;;;2.79;1.52;;;;;;;11.38;39.83;100738.59;360505;147;856275;-60
2021/10/19 09:59:01;;;;;;;2.85;1.40;;;;;;;;;;362274;147;856255;-60
2021/10/19 10:00:03;;;;;;;3.53;1.65;;;;;;;;;;359122;148;863877;-60
2021/10/19 10:01:10;;;;;;;4.71;1.23;;;;;;;;;;360440;148;856280;-59
2021/10/19 10:02:08;;;;;;;2.93;1.46;;;;;;;;;;357639;148;856284;-60
2021/10/19 10:03:13;;;;;;;3.94;1.26;;;;;;;;;;358903;148;856560;-60
2021/10/19 10:04:15;;;;;;;2.86;1.02;;;;;;;;;;358820;147;863386;-60
2021/10/19 10:05:17;;;;;;;2.46;1.29;;;;;;;;;;360090;148;863734;-60
2021/10/19 10:06:19;;;;;;;3.16;1.26;;;;;;;;;;361493;148;860708;-60
2021/10/19 10:07:29;;;;;;;1.30;0.92;;;;;;;;;;360479;147;856149;-60
2021/10/19 10:08:27;;;;;;;1.63;1.07;;;;;;;;;;359723;149;864355;-60
2021/10/19 10:09:28;;;;;;;2.09;1.09;;;;;;;;;;360146;147;856107;-60
2021/10/19 10:10:30;;;;;;;2.78;1.00;;;;;;;;;;359324;147;864457;-60
2021/10/19 10:11:31;;;;;;;2.99;1.24;;;;;;;;;;361150;147;864338;-60
2021/10/19 10:12:33;;;;;;;3.35;1.19;;;;;;;;;;358899;148;856888;-60
2021/10/19 10:13:35;;;;;;;22.69;1.58;;;;;;;;;;359466;148;863709;-60
2021/10/19 10:14:46;;;;;;;1.73;0.90;;;;;;;;;;360614;147;863725;-60
2021/10/19 10:15:47;;;;;;;2.38;0.78;;;;;;;;;;358020;149;856455;-60
2021/10/19 10:16:49;;;;;;;5.13;1.43;;;;;;;;;;356518;148;856945;-60
2021/10/19 10:17:52;;;;;;;2.63;1.27;;;;;;;;;;361079;147;864390;-60
2021/10/19 10:18:53;;;;;;;2.64;1.08;;;;;;;;;;358861;147;856306;-60
2021/10/19 10:19:57;;;;;;;3.21;1.03;;;;;;;;;;352885;151;856074;-60
2021/10/19 10:20:58;;;;;;;2.29;0.97;;;;;;;;;;360355;147;860751;-60
2021/10/19 10:22:02;;;;;;;2.63;1.26;;;;;;;;;;360369;147;856323;-60
2021/10/19 10:23:05;;;;;;;2.46;1.29;;;;;;;;;;361959;148;856903;-60
2021/10/19 10:24:07;;;;;;;2.05;1.15;;;;;;;;;;359788;148;856682;-60
2021/10/19 10:25:09;;;;;;;1.44;1.04;;;;;;;;;;361256;147;856145;-60
2021/10/19 10:26:22;;;;;;;1.78;1.24;;;;;;;;;;357906;147;860641;-60
2021/10/19 10:27:26;;;;;;;2.32;1.23;;;;;;;;;;355263;148;856307;-60
2021/10/19 10:28:30;;;;;;;2.22;1.18;;;;;;;;;;360403;147;856267;-60
2021/10/19 10:29:44;;;;;;;1.47;0.91;;;;;;;;;;361667;148;856276;-60
2021/10/19 10:30:46;;;;;;;2.08;1.17;;;;;;;;;;361424;148;856754;-60
2021/10/19 10:31:49;;;;;;;2.16;1.15;;;;;;;;;;360220;147;856418;-60
2021/10/19 10:32:50;;;;;;;2.58;1.11;;;;;;;;;;355076;150;856343;-60
2021/10/19 10:34:02;;;;;;;4.20;0.98;;;;;;;;;;356566;149;864780;-60
2021/10/19 10:35:07;;;;;;;1.90;0.92;;;;;;;;;;359167;147;864285;-60
2021/10/19 10:36:10;;;;;;;4.02;1.12;;;;;;;;;;360784;147;856463;-60
2021/10/19 10:37:12;;;;;;;1.83;0.91;;;;;;;;;;360886;148;856089;-60
2021/10/19 10:38:13;;;;;;;2.11;1.23;;;;;;;;;;359049;148;856148;-61
2021/10/19 10:39:15;;;;;;;4.34;2.82;;;;;;;;;;359191;147;856516;-60
2021/10/19 10:40:31;;;;;;;2.61;1.37;;;;;;;;;;357540;146;863690;-61
2021/10/19 10:41:36;;;;;;;2.55;1.00;;;;;;;;;;352697;150;856213;-61
2021/10/19 10:42:39;;;;;;;2.29;1.21;;;;;;;;;;352486;147;856408;-60
2021/10/19 10:43:40;;;;;;;2.05;1.21;;;;;;;;;;360368;147;856816;-59
2021/10/19 10:44:42;;;;;;;1.81;0.89;;;;;;;;;;360686;148;863870;-60
2021/10/19 10:45:44;;;;;;;2.71;0.99;;;;;;;;;;359498;147;864552;-60
2021/10/19 10:46:45;;;;;;;3.12;1.16;;;;;;;;;;360642;148;856758;-60
2021/10/19 10:47:47;;;;;;;2.14;1.42;;;;;;;;;;356166;151;856933;-60
2021/10/19 10:48:49;;;;;;;1.35;1.03;;;;;;;;;;358763;148;856356;-61
2021/10/19 10:49:50;;;;;;;1.86;1.20;;;;;;;;;;361541;147;856347;-61
2021/10/19 10:50:52;;;;;;;4.66;1.09;;;;;;;;;;359410;148;863929;-61
2021/10/19 10:51:53;;;;;;;3.34;1.08;;;;;;;;;;360133;148;858520;-59
2021/10/19 10:52:57;;;;;;;1.85;1.06;;;;;;;;;;360577;147;856164;-60
2021/10/19 10:53:59;;;;;;;1.54;1.06;;;;;;;;;;358408;148;856320;-60
2021/10/19 10:55:00;;;;;;;1.64;1.10;;;;;;;;;;357163;148;863906;-60
2021/10/19 10:56:02;;;;;;;1.26;0.89;;;;;;;;;;359993;147;863903;-60
2021/10/19 10:57:04;;;;;;;1.91;1.04;;;;;;;;;;357500;148;863752;-60
2021/10/19 10:58:05;;;;;;;2.04;0.94;;;;;;;;;;358989;148;863847;-59
2021/10/19 10:59:07;;;;;;;3.38;1.10;;;;;;;;;;358687;147;857353;-60
2021/10/19 11:00:09;;;;;;;2.11;1.11;;;;;;;;;;359488;147;856269;-60
2021/10/19 11:01:15;;;;;;;3.24;1.41;;;;;;;;;;360044;148;856479;-60
2021/10/19 11:02:16;;;;;;;2.96;1.47;;;;;;;;;;359620;148;856729;-60
2021/10/19 11:03:18;;;;;;;1.49;1.16;;;;;;;;;;360222;148;856556;-61
2021/10/19 11:04:20;;;;;;;1.92;1.24;;;;;;;;;;355111;149;862216;-60
2021/10/19 11:05:21;;;;;;;2.51;1.31;;;;;;;;;;356166;151;863823;-60
2021/10/19 11:06:25;;;;;;;2.19;1.34;;;;;;;;;;360251;148;864558;-60
2021/10/19 11:07:37;;;;;;;2.74;1.49;;;;;;;;;;358658;147;857067;-60
2021/10/19 11:08:39;;;;;;;3.13;1.39;;;;;;;;;;360180;149;856187;-61
2021/10/19 11:09:41;;;;;;;3.73;1.79;;;;;;;;;;359039;147;856626;-61
2021/10/19 11:10:42;;;;;;;1.94;1.13;;;;;;;;;;360742;147;856194;-60
2021/10/19 11:11:45;;;;;;;2.06;1.45;;;;;;;;;;357287;147;856879;-60
2021/10/19 11:12:46;;;;;;;3.69;1.21;;;;;;;;;;359515;147;856721;-60
2021/10/19 11:13:58;;;;;;;3.97;1.27;;;;;;;;;;359704;147;856489;-64
2021/10/19 11:15:11;;;;;;;2.13;0.97;;;;;;;;;;358691;147;863453;-66
2021/10/19 11:16:12;;;;;;;2.21;1.18;;;;;;;;;;356520;148;856121;-65
2021/10/19 11:17:18;;;;;;;1.71;1.03;;;;;;;;;;358990;147;856835;-67
2021/10/19 11:18:18;;;;;;;2.44;1.31;;;;;;;;;;360268;147;862236;-66
2021/10/19 11:19:21;;;;;;;2.81;0.99;;;;;;;;;;356188;151;856263;-67
2021/10/19 11:20:24;;;;;;;4.84;1.01;;;;;;;;;;355863;148;863567;-66
2021/10/19 11:21:26;;;;;;;2.49;1.07;;;;;;;;;;359084;148;856279;-66
2021/10/19 11:22:27;;;;;;;4.83;1.61;;;;;;;;;;355719;149;856428;-66
2021/10/19 11:23:29;;;;;;;7.31;1.79;;;;;;;;;;355937;148;863864;-66
2021/10/19 11:24:31;;;;;;;2.96;1.44;;;;;;;;;;355603;148;856530;-67
2021/10/19 11:25:33;;;;;;;2.73;1.14;;;;;;;;;;349953;152;863826;-67
2021/10/19 11:26:34;;;;;;;2.59;1.18;;;;;;;;;;350015;151;856924;-67
2021/10/19 11:27:37;;;;;;;4.54;1.20;;;;;;;;;;354545;148;864080;-66
2021/10/19 11:28:41;;;;;;;3.32;1.29;;;;;;;;;;359880;148;863548;-66
2021/10/19 11:29:42;;;;;;;5.21;1.27;;;;;;;;;;355332;151;856500;-66
2021/10/19 11:30:43;;;;;;;2.14;1.36;;;;;;;;;;355984;148;856214;-70
2021/10/19 11:31:45;;;;;;;3.02;1.29;;;;;;;;;;356124;148;863958;-68
2021/10/19 11:32:47;;;;;;;3.99;1.49;;;;;;;;;;355411;148;863885;-65
2021/10/19 11:33:48;;;;;;;4.29;1.30;;;;;;;;;;355356;148;863682;-66
2021/10/19 11:34:50;;;;;;;2.54;1.56;;;;;;;;;;355770;148;863953;-66
2021/10/19 11:35:52;;;;;;;4.56;1.51;;;;;;;;;;358762;149;856430;-65
2021/10/19 11:36:53;;;;;;;4.82;1.21;;;;;;;;;;355644;151;863857;-65
2021/10/19 11:37:55;;;;;;;2.38;0.91;;;;;;;;;;355520;149;856411;-66
2021/10/19 11:38:58;;;;;;;1.79;0.96;;;;;;;;;;358147;148;856890;-65
2021/10/19 11:40:04;;;;;;;1.98;1.19;;;;;;;;;;356755;149;856117;-65
2021/10/19 11:41:06;;;;;;;3.26;1.51;;;;;;;;;;356394;148;856281;-65
2021/10/19 11:42:08;;;;;;;2.47;1.14;;;;;;;;;;355939;148;856564;-64
2021/10/19 11:43:10;;;;;;;3.29;0.95;;;;;;;;;;356317;148;856239;-66
2021/10/19 11:44:12;;;;;;;3.85;1.11;;;;;;;;;;357136;148;864176;-66
2021/10/19 11:45:14;;;;;;;2.81;0.98;;;;;;;;;;356006;150;856383;-66
2021/10/19 11:46:17;;;;;;;1.88;0.85;;;;;;;;;;361286;148;856179;-62
2021/10/19 11:47:18;;;;;;;1.75;1.01;;;;;;;;;;355791;151;856972;-64
2021/10/19 11:48:20;;;;;;;1.63;0.66;;;;;;;;;;355171;148;857123;-63
2021/10/19 11:49:22;;;;;;;1.63;0.89;;;;;;;;;;360707;148;856330;-65
2021/10/19 11:50:28;;;;;;;1.65;0.82;;;;;;;;;;356155;148;856276;-64
2021/10/19 11:51:30;;;;;;;2.17;0.94;;;;;;;;;;354572;148;856461;-63
2021/10/19 11:52:31;;;;;;;3.76;0.97;;;;;;;;;;355878;148;856267;-63
2021/10/19 11:53:34;;;;;;;1.16;0.83;;;;;;;;;;355435;148;863310;-62
2021/10/19 11:54:35;;;;;;;1.89;0.99;;;;;;;;;;356227;148;856312;-65
2021/10/19 11:55:37;;;;;;;2.65;0.90;;;;;;;;;;356494;149;856358;-63
2021/10/19 11:56:38;;;;;;;1.96;1.03;;;;;;;;;;358912;148;863812;-65
2021/10/19 11:57:40;;;;;;;1.50;0.90;;;;;;;;;;359004;149;856380;-64
2021/10/19 11:58:48;;;;;;;1.56;1.37;;;;;;;;;;354755;149;856855;-65
2021/10/19 11:59:50;;;;;;;1.73;0.72;;;;;;;;;;355768;148;857458;-64
2021/10/19 12:00:52;;;;;;;3.82;1.04;;;;;;;;;;356110;148;857317;-65
2021/10/19 12:01:54;;;;;;;2.01;0.75;;;;;;;;;;356086;148;864157;-62
2021/10/19 12:02:56;;;;;;;2.06;0.97;;;;;;;;;;353863;148;856205;-64
2021/10/19 12:04:02;;;;;;;2.37;0.97;;;;;;;;;;354498;151;863787;-63
2021/10/19 12:05:04;;;;;;;4.09;1.01;;;;;;;;;;355014;149;856628;-65
2021/10/19 12:06:10;;;;;;;1.75;0.82;;;;;;;;;;353983;150;856866;-65
2021/10/19 12:07:13;;;;;;;2.81;1.00;;;;;;;;;;357716;149;856196;-63
2021/10/19 12:08:14;;;;;;;1.52;0.98;;;;;;;;;;355782;151;856548;-65
2021/10/19 12:09:18;;;;;;;2.26;0.86;;;;;;;;;;355596;148;856593;-64
2021/10/19 12:10:22;;;;;;;2.14;1.01;;;;;;;;;;355635;149;856396;-66
2021/10/19 12:11:24;;;;;;;2.47;0.98;;;;;;;;;;352333;151;857813;-66
2021/10/19 12:12:25;;;;;;;1.86;0.87;;;;;;;;;;346710;152;856782;-64
2021/10/19 12:13:27;;;;;;;3.91;1.06;;;;;;;;;;345831;152;856227;-65
2021/10/19 12:14:29;;;;;;;1.73;0.94;;;;;;;;;;344691;155;863436;-64
2021/10/19 12:15:33;;;;;;;1.11;0.88;;;;;;;;;;342867;154;856327;-64
2021/10/19 12:16:35;;;;;;;2.02;1.02;;;;;;;;;;345600;151;856195;-63
2021/10/19 12:17:36;;;;;;;1.79;0.98;;;;;;;;;;343177;154;856632;-66
2021/10/19 12:18:38;;;;;;;4.11;0.90;;;;;;;;;;342291;157;856220;-63
2021/10/19 12:19:40;;;;;;;3.06;1.15;;;;;;;;;;343038;154;856509;-65
2021/10/19 12:20:42;;;;;;;3.46;1.21;;;;;;;;;;348693;152;856524;-66
2021/10/19 12:21:46;;;;;;;1.92;0.94;;;;;;;;;;344291;154;857484;-64
2021/10/19 12:22:48;;;;;;;1.34;0.96;;;;;;;;;;346102;153;864020;-63
2021/10/19 12:23:53;;;;;;;1.96;1.20;;;;;;;;;;346541;153;856422;-63
2021/10/19 12:24:55;;;;;;;1.98;0.98;;;;;;;;;;346159;154;863974;-64
2021/10/19 12:25:57;;;;;;;1.66;0.99;;;;;;;;;;349112;154;856240;-65
2021/10/19 12:26:59;;;;;;;3.07;1.14;;;;;;;;;;346883;153;856251;-63
2021/10/19 12:28:00;;;;;;;1.02;0.70;;;;;;;;;;346855;152;856250;-66
2021/10/19 12:29:03;;;;;;;1.39;0.86;;;;;;;;;;333667;161;856535;-60
2021/10/19 12:30:11;;;;;;;2.85;0.71;;;;;;;;;;337905;156;856624;-61
2021/10/19 12:31:13;;;;;;;4.31;0.82;;;;;;;;;;344229;153;864520;-58
2021/10/19 12:32:15;;;;;;;1.53;0.91;;;;;;;;;;346309;155;856167;-61
2021/10/19 12:33:20;;;;;;;0.88;0.73;;;;;;;;;;343673;155;856223;-66
2021/10/19 12:34:25;;;;;;;1.59;0.78;;;;;;;;;;344310;154;864537;-62
2021/10/19 12:37:34;;;;;;;1.54;0.77;;;;;;;23.03;16.16;100666.77;374161;142;881340;-59
2021/10/19 12:38:39;;;;;;;1.72;0.77;;;;;;;24.40;16.84;100675.77;366988;144;856437;-60
2021/10/19 12:39:44;;;;;;;2.83;1.00;;;;;;;26.44;13.81;100683.44;365785;144;857121;-61
2021/10/19 12:40:47;;;;;;;2.48;0.86;;;;;;;24.32;14.76;100669.07;367302;144;863433;-63
2021/10/19 12:41:50;;;;;;;3.72;0.73;;;;;;;24.28;16.16;100672.82;368297;144;856646;-62
2021/10/19 12:42:51;;;;;;;2.26;0.89;;;;;;;;;;355376;147;856323;-61
2021/10/19 12:43:53;;;;;;;1.56;0.90;;;;;;;;;;356875;144;856941;-68
2021/10/19 12:44:55;;;;;;;3.11;0.91;;;;;;;;;;366443;144;856339;-62
2021/10/19 12:45:57;;;;;;;1.36;0.87;;;;;;;;;;366118;144;856303;-61
2021/10/19 12:47:02;;;;;;;1.71;0.94;;;;;;;;;;366867;144;856468;-61
2021/10/19 12:48:03;;;;;;;1.78;0.99;;;;;;;;;;366390;144;863781;-60
2021/10/19 12:49:05;;;;;;;2.39;0.89;;;;;;;;;;367354;144;856731;-61
2021/10/19 12:50:07;;;;;;;3.41;0.76;;;;;;;;;;367084;144;856335;-61
2021/10/19 12:51:09;;;;;;;1.77;0.89;;;;;;;;;;366428;144;863876;-61
2021/10/19 12:52:11;;;;;;;2.01;0.81;;;;;;;;;;366729;144;856741;-61
2021/10/19 12:53:12;;;;;;;4.06;0.91;;;;;;;;;;366526;144;856212;-62
2021/10/19 12:54:14;;;;;;;1.15;0.71;;;;;;;;;;365895;147;856223;-62
2021/10/19 12:55:15;;;;;;;1.70;0.71;;;;;;;;;;365914;144;857715;-62
2021/10/19 12:56:17;;;;;;;2.02;0.61;;;;;;;;;;363262;147;857110;-62
2021/10/19 12:57:19;;;;;;;1.07;0.87;;;;;;;;;;363633;148;863891;-62
2021/10/19 12:58:20;;;;;;;0.85;0.62;;;;;;;;;;362444;146;856643;-61
2021/10/19 12:59:23;;;;;;;3.17;0.87;;;;;;;;;;362588;146;856567;-61
2021/10/19 13:00:25;;;;;;;2.45;0.78;;;;;;;;;;359486;147;856379;-61
2021/10/19 13:01:27;;;;;;;2.14;0.94;;;;;;;;;;360991;147;864230;-61
2021/10/19 13:02:28;;;;;;;3.00;1.17;;;;;;;;;;361623;146;856307;-61
2021/10/19 13:03:30;;;;;;;5.18;1.16;;;;;;;;;;362967;148;856347;-61
2021/10/19 13:04:32;;;;;;;1.11;0.59;;;;;;;;;;363603;147;856669;-61
2021/10/19 13:05:33;;;;;;;1.16;0.86;;;;;;;;;;362419;146;856500;-61
2021/10/19 13:06:36;;;;;;;1.07;0.79;;;;;;;;;;360803;146;856185;-61
2021/10/19 13:07:38;;;;;;;2.64;1.04;;;;;;;;;;365910;147;856649;-61
2021/10/19 13:08:40;;;;;;;1.48;0.89;;;;;;;;;;363215;147;856428;-61
2021/10/19 13:09:41;;;;;;;1.39;0.91;;;;;;;;;;362296;147;856684;-61
2021/10/19 13:10:43;;;;;;;4.44;0.99;;;;;;;;;;360340;147;863742;-61
2021/10/19 13:11:44;;;;;;;2.16;0.89;;;;;;;;;;360289;147;856453;-62
2021/10/19 13:12:46;;;;;;;1.84;0.72;;;;;;;;;;362793;146;856480;-61
2021/10/19 13:13:47;;;;;;;4.97;0.96;;;;;;;;;;363113;147;856387;-61
2021/10/19 13:14:49;;;;;;;4.89;1.03;;;;;;;;;;360199;147;856689;-61
2021/10/19 13:15:50;;;;;;;3.09;0.71;;;;;;;;;;363560;147;856390;-61
2021/10/19 13:16:52;;;;;;;1.40;0.79;;;;;;;;;;362458;147;856777;-61
2021/10/19 13:17:54;;;;;;;2.28;0.99;;;;;;;;;;363692;147;856302;-61
2021/10/19 13:18:55;;;;;;;1.93;1.01;;;;;;;;;;361923;147;864053;-61
2021/10/19 13:19:57;;;;;;;1.25;0.83;;;;;;;;;;362289;146;856182;-61
2021/10/19 13:20:58;;;;;;;1.68;0.84;;;;;;;;;;361524;147;856317;-61
2021/10/19 13:22:00;;;;;;;1.31;0.75;;;;;;;;;;360988;147;856139;-62
2021/10/19 13:23:01;;;;;;;2.23;1.00;;;;;;;;;;363279;146;856271;-62
2021/10/19 13:24:03;;;;;;;2.61;0.97;;;;;;;;;;361461;146;856275;-62
2021/10/19 13:25:05;;;;;;;4.71;1.21;;;;;;;;;;365540;147;864460;-61
2021/10/19 13:26:06;;;;;;;2.04;1.00;;;;;;;;;;361891;147;863606;-62
2021/10/19 13:27:08;;;;;;;5.17;1.34;;;;;;;;;;361716;146;863915;-61
2021/10/19 13:28:11;;;;;;;2.14;0.75;;;;;;;;;;362738;147;856253;-61
2021/10/19 13:29:12;;;;;;;1.85;0.83;;;;;;;;;;360536;147;856132;-61
2021/10/19 13:30:14;;;;;;;1.67;0.81;;;;;;;;;;363479;146;863601;-62
2021/10/19 13:31:16;;;;;;;2.41;0.90;;;;;;;;;;361256;147;856199;-61
2021/10/19 13:32:18;;;;;;;1.44;0.80;;;;;;;;;;363252;148;863852;-61
2021/10/19 13:33:19;;;;;;;2.08;0.71;;;;;;;;;;361749;146;857946;-61
2021/10/19 13:34:21;;;;;;;3.37;1.10;;;;;;;;;;360912;146;856248;-61
2021/10/19 13:35:23;;;;;;;1.03;0.67;;;;;;;;;;360086;147;856803;-61
2021/10/19 13:36:25;;;;;;;1.59;0.93;;;;;;;;;;360505;147;856478;-61
2021/10/19 13:37:27;;;;;;;1.85;0.82;;;;;;;;;;362173;147;857020;-61
2021/10/19 13:38:31;;;;;;;2.99;0.78;;;;;;;;;;362674;147;856652;-61
2021/10/19 13:39:32;;;;;;;2.02;1.08;;;;;;;;;;362169;147;856686;-61
2021/10/19 13:40:34;;;;;;;2.64;0.95;;;;;;;;;;364539;146;856273;-61
2021/10/19 13:41:37;;;;;;;2.49;1.09;;;;;;;;;;364323;146;856392;-61
2021/10/19 13:42:39;;;;;;;1.91;0.86;;;;;;;;;;362679;147;863894;-61
2021/10/19 13:43:40;;;;;;;3.59;1.06;;;;;;;;;;361103;146;856743;-61
2021/10/19 13:44:42;;;;;;;4.08;1.11;;;;;;;;;;361894;147;863405;-61
2021/10/19 13:45:45;;;;;;;2.64;0.91;;;;;;;;;;359312;147;856510;-61
2021/10/19 13:46:47;;;;;;;2.19;1.01;;;;;;;;;;359180;147;863936;-61
2021/10/19 13:47:49;;;;;;;3.07;0.94;;;;;;;;;;361619;146;856779;-61
2021/10/19 13:48:50;;;;;;;3.29;0.94;;;;;;;;;;360004;147;857608;-61
2021/10/19 13:49:52;;;;;;;1.72;1.07;;;;;;;;;;359223;150;856456;-61
2021/10/19 13:50:54;;;;;;;2.72;1.17;;;;;;;;;;362935;147;857417;-61
2021/10/19 13:51:57;;;;;;;2.09;1.12;;;;;;;;;;360437;146;856213;-60
2021/10/19 13:52:59;;;;;;;1.74;1.00;;;;;;;;;;360909;149;856645;-61
2021/10/19 13:54:00;;;;;;;2.16;1.13;;;;;;;;;;361153;147;856289;-61
2021/10/19 13:55:03;;;;;;;2.57;1.29;;;;;;;;;;362264;146;858614;-61
2021/10/19 13:56:04;;;;;;;3.01;1.13;;;;;;;;;;363447;147;864483;-61
2021/10/19 13:57:08;;;;;;;1.84;1.00;;;;;;;;;;362008;147;856174;-61
2021/10/19 13:58:10;;;;;;;4.20;1.19;;;;;;;;;;361454;146;863964;-61
2021/10/19 13:59:13;;;;;;;3.50;1.11;;;;;;;;;;362410;146;863464;-61
2021/10/19 14:00:15;;;;;;;3.98;1.23;;;;;;;;;;365007;147;863908;-61
2021/10/19 14:01:16;;;;;;;2.39;1.15;;;;;;;;;;363070;147;856207;-61
2021/10/19 14:02:18;;;;;;;3.72;1.10;;;;;;;;;;362738;146;864820;-61
2021/10/19 14:03:19;;;;;;;3.38;1.07;;;;;;;;;;363000;147;856299;-61
2021/10/19 14:04:21;;;;;;;2.97;1.04;;;;;;;;;;363498;147;856217;-61
2021/10/19 14:05:22;;;;;;;3.54;1.24;;;;;;;;;;364270;146;856272;-61
2021/10/19 14:06:25;;;;;;;3.65;1.52;;;;;;;;;;360324;148;856401;-61
2021/10/19 14:07:26;;;;;;;1.29;1.18;;;;;;;;;;363528;148;856315;-61
2021/10/19 14:08:28;;;;;;;2.33;1.19;;;;;;;;;;361235;147;864387;-61
2021/10/19 14:09:30;;;;;;;2.36;1.27;;;;;;;;;;361768;147;856659;-60
2021/10/19 14:10:31;;;;;;;2.41;1.09;;;;;;;;;;363580;148;856606;-61
2021/10/19 14:11:33;;;;;;;2.26;1.32;;;;;;;;;;362152;147;863896;-61
2021/10/19 14:12:35;;;;;;;2.84;1.41;;;;;;;;;;361237;146;863798;-61
2021/10/19 14:13:37;;;;;;;3.00;1.29;;;;;;;;;;361248;147;856264;-60
2021/10/19 14:14:38;;;;;;;3.06;1.14;;;;;;;;;;360625;147;856360;-60
2021/10/19 14:15:40;;;;;;;2.61;1.19;;;;;;;;;;363888;146;856222;-61
2021/10/19 14:16:41;;;;;;;4.10;1.06;;;;;;;;;;362467;147;863507;-61
2021/10/19 14:17:43;;;;;;;3.64;1.35;;;;;;;;;;363258;148;856207;-60
2021/10/19 14:18:45;;;;;;;2.44;1.20;;;;;;;;;;364146;146;856484;-61
2021/10/19 14:19:49;;;;;;;1.85;1.18;;;;;;;;;;361947;146;857487;-61
2021/10/19 14:20:50;;;;;;;1.52;0.88;;;;;;;;;;363861;147;856349;-61
2021/10/19 14:21:52;;;;;;;2.99;1.14;;;;;;;;;;364232;147;856825;-61
2021/10/19 14:22:54;;;;;;;4.20;1.39;;;;;;;;;;363039;146;856718;-61
2021/10/19 14:23:56;;;;;;;1.38;0.90;;;;;;;;;;362276;147;856256;-61
2021/10/19 14:24:58;;;;;;;1.80;1.32;;;;;;;;;;359115;150;856439;-61
2021/10/19 14:25:59;;;;;;;2.83;1.26;;;;;;;;;;361803;146;863824;-61
2021/10/19 14:27:01;;;;;;;2.89;1.19;;;;;;;;;;361281;146;856650;-61
2021/10/19 14:28:03;;;;;;;2.94;1.23;;;;;;;;;;360912;147;856292;-61
2021/10/19 14:29:05;;;;;;;3.56;1.11;;;;;;;;;;362196;147;856925;-61
2021/10/19 14:30:06;;;;;;;5.31;1.26;;;;;;;;;;362839;147;856603;-60
2021/10/19 14:31:08;;;;;;;2.17;1.25;;;;;;;;;;362233;147;863641;-61
2021/10/19 14:32:10;;;;;;;4.11;1.21;;;;;;;;;;360485;147;856760;-60
2021/10/19 14:33:12;;;;;;;3.22;1.13;;;;;;;;;;361780;146;863303;-61
2021/10/19 14:34:19;;;;;;;2.16;1.41;;;;;;;;;;361862;147;856534;-60
2021/10/19 14:35:17;;;;;;;2.59;1.22;;;;;;;;;;361956;147;856230;-62
2021/10/19 14:36:20;;;;;;;2.46;1.14;;;;;;;;;;362165;146;856156;-61
2021/10/19 14:37:21;;;;;;;4.73;1.13;;;;;;;;;;360978;146;863806;-61
2021/10/19 14:38:23;;;;;;;3.49;1.31;;;;;;;;;;358821;149;856183;-62
2021/10/19 14:39:25;;;;;;;3.00;1.34;;;;;;;;;;354476;149;864272;-61
2021/10/19 14:40:26;;;;;;;3.74;1.29;;;;;;;;;;356866;149;856805;-61
2021/10/19 14:41:28;;;;;;;1.93;1.21;;;;;;;;;;356341;147;863598;-61
2021/10/19 14:42:29;;;;;;;3.48;1.50;;;;;;;;;;358583;147;856879;-64
2021/10/19 14:43:31;;;;;;;3.27;1.69;;;;;;;;;;357404;149;856509;-62
2021/10/19 14:44:33;;;;;;;3.31;1.15;;;;;;;;;;343534;155;863433;-62
2021/10/19 14:45:34;;;;;;;2.74;1.32;;;;;;;;;;349519;152;856166;-66
2021/10/19 14:46:38;;;;;;;1.88;1.23;;;;;;;;;;349774;151;864574;-62
2021/10/19 14:47:40;;;;;;;3.17;1.59;;;;;;;;;;349097;152;857036;-63
2021/10/19 14:48:41;;;;;;;4.44;1.60;;;;;;;;;;355554;149;856361;-60
2021/10/19 14:49:43;;;;;;;2.48;1.54;;;;;;;;;;357087;149;857518;-62
2021/10/19 14:50:44;;;;;;;3.50;1.51;;;;;;;;;;356422;149;864248;-61
2021/10/19 14:51:50;;;;;;;3.46;1.46;;;;;;;;;;357249;147;856426;-72
2021/10/19 14:52:53;;;;;;;4.60;1.29;;;;;;;;;;348724;149;856459;-66
2021/10/19 14:53:55;;;;;;;3.49;1.62;;;;;;;;;;348626;150;856624;-66
2021/10/19 14:54:56;;;;;;;2.36;1.20;;;;;;;;;;356917;149;856294;-64
2021/10/19 14:55:59;;;;;;;6.73;1.46;;;;;;;;;;358739;149;863477;-67
2021/10/19 14:57:00;;;;;;;3.81;1.75;;;;;;;;;;358090;149;856451;-66
2021/10/19 14:58:02;;;;;;;5.42;1.89;;;;;;;;;;356737;149;856238;-67
2021/10/19 14:59:04;;;;;;;4.79;1.54;;;;;;;;;;354948;149;863726;-66
2021/10/19 15:00:06;;;;;;;7.54;1.86;;;;;;;;;;355248;148;863390;-66
2021/10/19 15:01:08;;;;;;;3.74;1.51;;;;;;;;;;350762;150;863991;-66
2021/10/19 15:02:09;;;;;;;5.84;1.66;;;;;;;;;;349261;150;856226;-66
2021/10/19 15:03:11;;;;;;;6.31;1.53;;;;;;;;;;356762;149;863634;-63
2021/10/19 15:04:12;;;;;;;3.37;1.43;;;;;;;;;;355814;148;863841;-68
2021/10/19 15:05:14;;;;;;;3.61;1.61;;;;;;;;;;357335;148;856346;-66
2021/10/19 15:06:17;;;;;;;3.54;1.90;;;;;;;;;;357797;149;856302;-66
2021/10/19 15:07:19;;;;;;;3.51;1.52;;;;;;;;;;356513;149;863514;-64
2021/10/19 15:08:20;;;;;;;5.61;1.59;;;;;;;;;;356056;148;856221;-61
2021/10/19 15:09:24;;;;;;;2.62;1.09;;;;;;;;;;353940;147;864002;-64
2021/10/19 15:10:25;;;;;;;4.39;1.66;;;;;;;;;;354830;149;856416;-66
2021/10/19 15:11:27;;;;;;;3.69;1.48;;;;;;;;;;357450;147;863887;-60
2021/10/19 15:12:29;;;;;;;3.62;1.29;;;;;;;;;;357425;149;863487;-61
2021/10/19 15:13:30;;;;;;;2.74;1.48;;;;;;;;;;355722;149;863417;-62
2021/10/19 15:14:32;;;;;;;4.54;1.32;;;;;;;;;;356226;149;864206;-60
2021/10/19 15:15:34;;;;;;;3.15;1.26;;;;;;;;;;356731;149;856791;-62
2021/10/19 15:16:37;;;;;;;4.12;1.62;;;;;;;;;;356248;149;856695;-67
2021/10/19 15:17:38;;;;;;;3.67;1.44;;;;;;;;;;357552;147;856319;-60
2021/10/19 15:18:40;;;;;;;5.58;1.36;;;;;;;;;;357054;149;856349;-60